Time;durP1;ratioP1;P1;durP2;ratioP2;P2;SDS_P1;SDS_P2;PMS_P1;PMS_P2;Temp;Humidity;BMP_temperature;BMP_pressure;BME280_temperature;BME280_humidity;BME280_pressure;Samples;Min_cycle;Max_cycle;Signal;HPM_P1;HPM_P2
2024/01/05 00:00:12;;;;;;;0.00;0.00;;;;;;;4.60;100.00;98500.75;4947523;28;20086;-78
2024/01/05 00:02:38;;;;;;;0.00;0.00;;;;;;;4.57;100.00;98499.44;4951190;28;20066;-79
2024/01/05 00:05:06;;;;;;;0.00;0.00;;;;;;;4.59;100.00;98507.28;4922572;28;20030;-79
2024/01/05 00:07:31;;;;;;;0.00;0.00;;;;;;;4.62;100.00;98518.38;4956229;28;20085;-79
2024/01/05 00:09:57;;;;;;;0.00;0.00;;;;;;;4.59;100.00;98521.63;4935216;28;20023;-78
2024/01/05 00:12:22;;;;;;;0.00;0.00;;;;;;;4.50;100.00;98507.03;4941656;28;20027;-78
2024/01/05 00:14:48;;;;;;;0.00;0.00;;;;;;;4.62;100.00;98522.97;4936531;28;20062;-77
2024/01/05 00:17:13;;;;;;;0.00;0.00;;;;;;;4.59;100.00;98528.94;4969190;28;20111;-77
2024/01/05 00:19:38;;;;;;;0.00;0.00;;;;;;;4.58;100.00;98533.53;4952257;28;20489;-77
2024/01/05 00:22:04;;;;;;;0.00;0.00;;;;;;;4.58;100.00;98532.72;4951998;28;20031;-78
2024/01/05 00:24:29;;;;;;;0.00;0.00;;;;;;;4.61;100.00;98543.00;4936275;28;20027;-77
2024/01/05 00:26:55;;;;;;;0.10;0.10;;;;;;;4.61;100.00;98543.00;4930641;29;20034;-78
2024/01/05 00:29:20;;;;;;;0.00;0.00;;;;;;;4.61;100.00;98549.22;4930501;28;20377;-77
2024/01/05 00:31:46;;;;;;;0.00;0.00;;;;;;;4.60;100.00;98544.91;4966038;28;20050;-78
2024/01/05 00:34:11;;;;;;;0.10;0.10;;;;;;;4.62;100.00;98550.84;4939089;28;20417;-79
2024/01/05 00:36:36;;;;;;;0.00;0.00;;;;;;;4.64;100.00;98548.66;4929866;28;20039;-79
2024/01/05 00:39:02;;;;;;;0.00;0.00;;;;;;;4.65;100.00;98544.88;4936863;28;20544;-77
2024/01/05 00:41:27;;;;;;;0.00;0.00;;;;;;;4.67;100.00;98553.56;4941750;28;20114;-75
2024/01/05 00:43:53;;;;;;;0.10;0.10;;;;;;;4.70;100.00;98557.59;4940978;28;20098;-77
2024/01/05 00:46:18;;;;;;;0.00;0.00;;;;;;;4.70;100.00;98553.00;4921909;28;20026;-77
2024/01/05 00:48:44;;;;;;;0.00;0.00;;;;;;;4.71;100.00;98565.44;4938077;28;20129;-77
2024/01/05 00:51:09;;;;;;;0.00;0.00;;;;;;;4.70;100.00;98558.44;4954761;28;20113;-78
2024/01/05 00:53:35;;;;;;;0.00;0.00;;;;;;;4.71;100.00;98568.16;4933418;28;20027;-77
2024/01/05 00:56:00;;;;;;;0.00;0.00;;;;;;;4.75;100.00;98570.34;4938659;28;20073;-78
2024/01/05 00:58:25;;;;;;;0.00;0.00;;;;;;;4.74;100.00;98563.31;4927644;28;21481;-77
2024/01/05 01:00:51;;;;;;;0.00;0.00;;;;;;;4.71;100.00;98565.44;4935831;28;20027;-76
2024/01/05 01:03:16;;;;;;;0.00;0.00;;;;;;;4.77;100.00;98579.00;4937492;28;20370;-77
2024/01/05 01:05:42;;;;;;;0.00;0.00;;;;;;;4.77;100.00;98573.56;4934267;28;20035;-77
2024/01/05 01:08:07;;;;;;;0.00;0.00;;;;;;;4.79;100.00;98587.66;4944309;28;20035;-77
2024/01/05 01:10:32;;;;;;;0.00;0.00;;;;;;;4.78;100.00;98581.44;4948593;28;20026;-76
2024/01/05 01:13:01;;;;;;;0.00;0.00;;;;;;;4.77;100.00;98590.63;4947771;28;20039;-77
2024/01/05 01:15:26;;;;;;;0.00;0.00;;;;;;;4.82;100.00;98592.50;4966776;28;20026;-77
2024/01/05 01:17:51;;;;;;;0.00;0.00;;;;;;;4.83;100.00;98588.72;4965922;28;20015;-78
2024/01/05 01:20:17;;;;;;;0.00;0.00;;;;;;;4.87;100.00;98606.06;4942153;28;20045;-78
2024/01/05 01:22:50;;;;;;;0.00;0.00;;;;;;;4.85;100.00;98602.81;4938951;28;20037;-78
2024/01/05 01:25:16;;;;;;;0.10;0.10;;;;;;;4.84;100.00;98598.50;4937985;28;20046;-79
2024/01/05 01:27:42;;;;;;;0.00;0.00;;;;;;;4.90;100.00;98610.94;4937002;28;20058;-78
2024/01/05 01:30:08;;;;;;;0.00;0.00;;;;;;;4.83;100.00;98599.56;4944390;28;20026;-77
2024/01/05 01:32:36;;;;;;;0.00;0.00;;;;;;;4.83;100.00;98597.69;4939977;28;20410;-75
2024/01/05 01:35:01;;;;;;;0.00;0.00;;;;;;;4.88;100.00;98618.53;4952707;28;20015;-77
2024/01/05 01:37:26;;;;;;;0.00;0.00;;;;;;;4.92;100.00;98608.78;4951528;28;20030;-77
2024/01/05 01:39:52;;;;;;;0.00;0.00;;;;;;;4.88;100.00;98608.50;4943186;28;20078;-78
2024/01/05 01:42:17;;;;;;;0.10;0.10;;;;;;;4.91;100.00;98612.56;4926533;28;20035;-77
2024/01/05 01:44:43;;;;;;;0.00;0.00;;;;;;;4.90;100.00;98610.94;4937373;28;20433;-76
2024/01/05 01:47:08;;;;;;;0.00;0.00;;;;;;;4.83;100.00;98603.09;4923554;28;20142;-77
2024/01/05 01:49:34;;;;;;;0.10;0.10;;;;;;;4.94;100.00;98622.84;4953020;28;20037;-79
2024/01/05 01:52:00;;;;;;;0.00;0.00;;;;;;;4.96;100.00;98625.28;4937065;28;20082;-77
2024/01/05 01:54:27;;;;;;;0.00;0.00;;;;;;;4.90;100.00;98622.56;4956637;28;20518;-77
2024/01/05 01:56:52;;;;;;;0.10;0.10;;;;;;;4.92;100.00;98632.31;4959305;28;20015;-77
2024/01/05 01:59:18;;;;;;;0.00;0.00;;;;;;;4.86;100.00;98632.34;4963459;28;20039;-76
2024/01/05 02:01:44;;;;;;;0.00;0.00;;;;;;;4.87;100.00;98627.72;4921420;28;20409;-77
2024/01/05 02:04:17;;;;;;;0.00;0.00;;;;;;;4.85;100.00;98638.03;4942621;28;20444;-75
2024/01/05 02:06:46;;;;;;;0.10;0.10;;;;;;;4.85;100.00;98646.97;4970250;28;20027;-78
2024/01/05 02:09:12;;;;;;;0.00;0.00;;;;;;;4.85;100.00;98646.16;4958187;28;20082;-77
2024/01/05 02:11:38;;;;;;;0.00;0.00;;;;;;;4.85;100.00;98652.38;4982051;28;20014;-77
2024/01/05 02:14:03;;;;;;;0.00;0.00;;;;;;;4.85;100.00;98657.81;4933186;28;20318;-78
2024/01/05 02:16:29;;;;;;;0.00;0.00;;;;;;;4.83;100.00;98656.44;4959986;28;20015;-77
2024/01/05 02:18:57;;;;;;;0.00;0.00;;;;;;;4.82;100.00;98657.50;4959383;28;20034;-76
2024/01/05 02:21:26;;;;;;;0.10;0.10;;;;;;;4.85;100.00;98662.41;4954590;28;20023;-77
2024/01/05 02:23:52;;;;;;;0.00;0.00;;;;;;;4.81;100.00;98666.75;4959118;28;20613;-77
2024/01/05 02:26:17;;;;;;;0.00;0.00;;;;;;;4.83;100.00;98669.97;4939485;28;20094;-80
2024/01/05 02:28:43;;;;;;;0.00;0.00;;;;;;;4.84;100.00;98677.03;4960921;28;20429;-78
2024/01/05 02:31:08;;;;;;;0.00;0.00;;;;;;;4.81;100.00;98667.53;4924221;28;20019;-78
2024/01/05 02:33:36;;;;;;;0.00;0.00;;;;;;;4.83;100.00;98669.97;4956526;28;20054;-76
2024/01/05 02:36:02;;;;;;;0.10;0.10;;;;;;;4.81;100.00;98683.00;4956707;28;20015;-78
2024/01/05 02:38:27;;;;;;;0.10;0.10;;;;;;;4.79;100.00;98679.72;4956998;28;20031;-77
2024/01/05 02:40:55;;;;;;;0.00;0.00;;;;;;;4.69;100.00;98669.72;4957347;28;20030;-77
2024/01/05 02:43:23;;;;;;;0.00;0.00;;;;;;;4.77;100.00;98682.69;4923965;28;20396;-78
2024/01/05 02:45:48;;;;;;;0.00;0.00;;;;;;;4.76;100.00;98691.09;4953111;28;20106;-77
2024/01/05 02:48:14;;;;;;;0.00;0.00;;;;;;;4.75;100.00;98694.91;4938008;29;20139;-78
2024/01/05 02:50:40;;;;;;;0.00;0.00;;;;;;;4.65;100.00;98682.97;4976043;28;20018;-78
2024/01/05 02:53:05;;;;;;;0.00;0.00;;;;;;;4.70;100.00;98696.53;4938521;28;20469;-78
2024/01/05 02:55:30;;;;;;;0.00;0.00;;;;;;;4.67;100.00;98686.25;4953560;28;20034;-79
2024/01/05 02:57:56;;;;;;;0.00;0.00;;;;;;;4.70;100.00;98704.66;4943720;28;20045;-78
2024/01/05 03:00:21;;;;;;;0.00;0.00;;;;;;;4.65;100.00;98699.22;4954045;28;20062;-78
2024/01/05 03:02:56;;;;;;;0.10;0.10;;;;;;;4.63;100.00;98701.41;4926776;28;20053;-79
2024/01/05 03:05:26;;;;;;;0.10;0.10;;;;;;;4.48;100.00;98691.38;4966118;28;20014;-77
2024/01/05 03:07:55;;;;;;;0.10;0.10;;;;;;;4.59;100.00;98719.25;4933796;28;20061;-80
2024/01/05 03:10:28;;;;;;;0.10;0.10;;;;;;;4.54;100.00;98711.09;4957296;28;20081;-80
2024/01/05 03:12:53;;;;;;;0.10;0.10;;;;;;;4.42;100.00;98689.72;4944306;28;20038;-78
2024/01/05 03:15:19;;;;;;;0.10;0.10;;;;;;;4.42;100.00;98699.72;4956101;28;20172;-78
2024/01/05 03:17:44;;;;;;;0.00;0.00;;;;;;;4.53;100.00;98715.72;4923767;28;20034;-78
2024/01/05 03:23:32;;;;;;;0.10;0.10;;;;;;;4.29;100.00;98682.94;4945179;28;20037;-77
2024/01/05 03:26:30;;;;;;;0.00;0.00;;;;;;;4.44;100.00;98711.09;4971899;28;20023;-79
2024/01/05 03:29:08;;;;;;;;;;;;;;;;;;;;;
2024/01/05 03:31:34;;;;;;;0.00;0.00;;;;;;;4.20;100.00;98689.94;4981473;28;20026;-76
2024/01/05 03:34:02;;;;;;;0.00;0.00;;;;;;;4.20;100.00;98689.94;4962933;28;20041;-79
2024/01/05 03:36:27;;;;;;;0.10;0.10;;;;;;;4.18;100.00;98706.44;4968469;28;20027;-78
2024/01/05 03:38:54;;;;;;;0.00;0.00;;;;;;;4.31;100.00;98724.06;4949458;28;20030;-78
2024/01/05 03:41:19;;;;;;;0.00;0.00;;;;;;;4.32;100.00;98731.09;4938346;28;20022;-78
2024/01/05 03:43:44;;;;;;;0.10;0.10;;;;;;;4.28;100.00;98735.44;4942290;28;20041;-79
2024/01/05 03:46:15;;;;;;;0.00;0.00;;;;;;;4.26;100.00;98740.28;4956680;28;20065;-78
2024/01/05 03:48:41;;;;;;;0.10;0.10;;;;;;;4.24;100.00;98728.91;4973090;28;20046;-77
2024/01/05 03:51:06;;;;;;;0.00;0.00;;;;;;;4.18;100.00;98736.19;4956967;28;20031;-77
2024/01/05 03:53:32;;;;;;;0.10;0.10;;;;;;;4.09;100.00;98726.13;4918895;28;20033;-77
2024/01/05 03:55:58;;;;;;;0.00;0.00;;;;;;;4.15;100.00;98733.22;4964418;28;20054;-76
2024/01/05 03:58:23;;;;;;;0.00;0.00;;;;;;;4.14;100.00;98728.88;4920228;28;20020;-77
2024/01/05 04:00:49;;;;;;;0.00;0.00;;;;;;;4.02;100.00;98716.38;4942610;28;20097;-76
2024/01/05 04:03:14;;;;;;;0.00;0.00;;;;;;;4.10;100.00;98730.47;4952059;28;20054;-78
2024/01/05 04:05:40;;;;;;;0.00;0.00;;;;;;;4.09;100.00;98731.56;4940632;28;20169;-78
2024/01/05 04:08:05;;;;;;;0.00;0.00;;;;;;;4.02;100.00;98726.41;4931088;28;20038;-78
2024/01/05 04:10:31;;;;;;;0.10;0.10;;;;;;;4.05;100.00;98725.06;4966452;28;20015;-79
2024/01/05 04:12:56;;;;;;;0.00;0.00;;;;;;;4.08;100.00;98743.47;4931591;28;20031;-78
2024/01/05 04:15:22;;;;;;;0.00;0.00;;;;;;;4.07;100.00;98739.94;4936311;28;20041;-77
2024/01/05 04:17:47;;;;;;;0.00;0.00;;;;;;;4.06;100.00;98741.03;4926232;28;20035;-76
2024/01/05 04:20:12;;;;;;;0.00;0.00;;;;;;;4.06;100.00;98742.91;4939342;28;20365;-77
2024/01/05 04:22:38;;;;;;;0.00;0.00;;;;;;;4.09;100.00;98745.91;4971175;28;20042;-77
2024/01/05 04:25:04;;;;;;;0.00;0.00;;;;;;;4.08;100.00;98752.38;4934706;28;20028;-76
2024/01/05 04:27:29;;;;;;;0.10;0.10;;;;;;;4.09;100.00;98747.78;4941861;28;20035;-77
2024/01/05 04:29:56;;;;;;;0.10;0.10;;;;;;;4.01;100.00;98736.38;4940737;28;20441;-77
2024/01/05 04:32:24;;;;;;;0.08;0.08;;;;;;;4.11;100.00;98748.34;4934444;28;20030;-76
2024/01/05 04:34:49;;;;;;;0.10;0.10;;;;;;;4.05;100.00;98749.41;4973823;28;20047;-78
2024/01/05 04:37:14;;;;;;;0.00;0.00;;;;;;;4.03;100.00;98749.69;4950163;28;20049;-76
2024/01/05 04:39:43;;;;;;;0.00;0.00;;;;;;;4.06;100.00;98751.03;4935015;28;20413;-78
2024/01/05 04:42:09;;;;;;;0.00;0.00;;;;;;;4.02;100.00;98746.13;4944727;28;20030;-78
2024/01/05 04:44:34;;;;;;;0.00;0.00;;;;;;;4.05;100.00;98749.41;4937404;28;20412;-78
2024/01/05 04:47:00;;;;;;;0.00;0.00;;;;;;;4.04;100.00;98750.47;4933132;28;20093;-78
2024/01/05 04:49:26;;;;;;;0.10;0.10;;;;;;;4.01;100.00;98747.22;4968593;28;20146;-78
2024/01/05 04:51:51;;;;;;;0.00;0.00;;;;;;;3.97;100.00;98748.00;4960680;28;20089;-77
2024/01/05 04:54:17;;;;;;;0.00;0.00;;;;;;;3.99;100.00;98760.19;4919953;28;20054;-77
2024/01/05 04:56:42;;;;;;;0.10;0.10;;;;;;;3.96;100.00;98749.09;4969451;28;20030;-78
2024/01/05 04:59:08;;;;;;;0.10;0.10;;;;;;;3.91;100.00;98751.78;4938986;28;20225;-77
2024/01/05 05:01:33;;;;;;;0.00;0.00;;;;;;;4.00;100.00;98764.53;4920980;28;20076;-78
2024/01/05 05:03:58;;;;;;;0.00;0.00;;;;;;;3.98;100.00;98763.97;4931897;28;20045;-76
2024/01/05 05:06:24;;;;;;;0.00;0.00;;;;;;;3.98;100.00;98766.66;4947943;28;20039;-78
2024/01/05 05:08:49;;;;;;;0.00;0.00;;;;;;;3.91;100.00;98747.16;4941416;28;20035;-78
2024/01/05 05:11:15;;;;;;;0.00;0.00;;;;;;;4.07;100.00;98774.28;4924087;28;20039;-79
2024/01/05 05:13:40;;;;;;;0.00;0.00;;;;;;;3.95;100.00;98753.69;4939102;28;20034;-76
2024/01/05 05:16:06;;;;;;;0.10;0.10;;;;;;;4.01;100.00;98757.22;4936794;28;20034;-78
2024/01/05 05:18:31;;;;;;;0.00;0.00;;;;;;;4.01;100.00;98768.84;4929948;28;20045;-78
2024/01/05 05:20:57;;;;;;;0.00;0.00;;;;;;;4.06;100.00;98776.19;4924508;28;20035;-78
2024/01/05 05:23:22;;;;;;;0.10;0.10;;;;;;;4.04;100.00;98774.81;4946138;28;20065;-78
2024/01/05 05:25:48;;;;;;;0.00;0.00;;;;;;;4.04;100.00;98783.75;4921974;28;20015;-79
2024/01/05 05:28:13;;;;;;;0.00;0.00;;;;;;;3.98;100.00;98785.59;4936148;28;20022;-77
2024/01/05 05:30:38;;;;;;;0.00;0.00;;;;;;;3.95;100.00;98786.13;4954501;28;20035;-78
2024/01/05 05:33:04;;;;;;;0.10;0.10;;;;;;;3.87;100.00;98777.69;4925090;28;20497;-78
2024/01/05 05:35:29;;;;;;;0.10;0.10;;;;;;;3.83;100.00;98778.22;4950146;28;20035;-77
2024/01/05 05:37:55;;;;;;;0.00;0.00;;;;;;;3.82;100.00;98781.19;4927305;28;20338;-77
2024/01/05 05:40:21;;;;;;;0.10;0.10;;;;;;;3.73;100.00;98785.47;4915851;28;20480;-78
2024/01/05 05:42:46;;;;;;;0.00;0.00;;;;;;;3.78;100.00;98790.91;4926198;28;20039;-77
2024/01/05 05:45:12;;;;;;;0.00;0.00;;;;;;;3.80;100.00;98788.78;4921315;28;20033;-78
2024/01/05 05:47:38;;;;;;;0.00;0.00;;;;;;;3.78;100.00;98791.75;4954581;28;20043;-77
2024/01/05 05:50:06;;;;;;;0.00;0.00;;;;;;;3.87;100.00;98802.88;4940182;29;20035;-78
2024/01/05 05:52:32;;;;;;;0.00;0.00;;;;;;;3.90;100.00;98807.75;4965502;28;20031;-78
2024/01/05 05:54:58;;;;;;;0.00;0.00;;;;;;;3.90;100.00;98805.06;4932017;29;20031;-77
2024/01/05 05:57:23;;;;;;;0.00;0.00;;;;;;;3.92;100.00;98805.59;4948231;28;20070;-78
2024/01/05 05:59:50;;;;;;;0.00;0.00;;;;;;;3.93;100.00;98804.53;4918051;28;20398;-78
2024/01/05 06:02:15;;;;;;;0.00;0.00;;;;;;;3.90;100.00;98810.47;4921577;28;20501;-78
2024/01/05 06:04:41;;;;;;;0.00;0.00;;;;;;;3.90;100.00;98807.75;4942192;28;20060;-79
2024/01/05 06:07:06;;;;;;;0.00;0.00;;;;;;;3.91;100.00;98822.88;4961645;28;20027;-79
2024/01/05 06:09:32;;;;;;;0.00;0.00;;;;;;;3.85;100.00;98818.53;4918660;28;20023;-78
2024/01/05 06:11:57;;;;;;;0.00;0.00;;;;;;;3.79;100.00;98830.41;4948951;28;20015;-78
2024/01/05 06:14:23;;;;;;;0.10;0.10;;;;;;;3.61;100.00;98823.53;4924102;28;20037;-79
2024/01/05 06:16:48;;;;;;;0.10;0.10;;;;;;;3.56;100.00;98832.38;4927552;28;20035;-78
2024/01/05 06:19:14;;;;;;;0.10;0.10;;;;;;;3.50;100.00;98828.03;4939067;28;20031;-79
2024/01/05 06:21:39;;;;;;;0.00;0.00;;;;;;;3.51;100.00;98828.84;4925376;28;20037;-79
2024/01/05 06:24:04;;;;;;;0.10;0.10;;;;;;;3.45;100.00;98826.09;4937577;28;20046;-78
2024/01/05 06:26:31;;;;;;;0.00;0.00;;;;;;;3.43;100.00;98832.81;4941033;28;20038;-76
2024/01/05 06:28:56;;;;;;;0.00;0.00;;;;;;;3.46;100.00;98843.13;4949107;28;20069;-78
2024/01/05 06:31:23;;;;;;;0.10;0.10;;;;;;;3.45;100.00;98845.00;4953366;28;20022;-78
2024/01/05 06:33:48;;;;;;;0.10;0.10;;;;;;;3.30;100.00;98818.69;4933271;28;20046;-79
2024/01/05 06:36:14;;;;;;;0.10;0.10;;;;;;;3.43;100.00;98849.03;4956877;28;20035;-77
2024/01/05 06:38:39;;;;;;;0.10;0.10;;;;;;;3.30;100.00;98843.00;4951255;28;20121;-76
2024/01/05 06:41:05;;;;;;;0.00;0.00;;;;;;;3.25;100.00;98853.75;4939510;29;20031;-77
2024/01/05 06:43:30;;;;;;;0.10;0.10;;;;;;;3.20;100.00;98856.41;4961143;28;20031;-78
2024/01/05 06:45:56;;;;;;;0.10;0.10;;;;;;;3.12;100.00;98856.88;4966738;28;20027;-78
2024/01/05 06:48:21;;;;;;;0.10;0.10;;;;;;;3.16;100.00;98863.41;4947032;28;20361;-76
2024/01/05 06:50:46;;;;;;;0.00;0.00;;;;;;;3.16;100.00;98859.91;4928648;28;20721;-76
2024/01/05 06:53:12;;;;;;;0.00;0.00;;;;;;;3.16;100.00;98866.09;4924863;28;20039;-77
2024/01/05 06:55:37;;;;;;;0.00;0.00;;;;;;;3.17;100.00;98867.75;4951255;28;20034;-77
2024/01/05 06:58:06;;;;;;;0.00;0.00;;;;;;;3.11;100.00;98874.97;4948653;28;20015;-72
2024/01/05 07:00:31;;;;;;;0.00;0.00;;;;;;;3.11;100.00;98879.53;4928837;28;20034;-72
2024/01/05 07:02:57;;;;;;;0.00;0.00;;;;;;;2.91;100.00;98859.38;4934020;28;20094;-72
2024/01/05 07:05:22;;;;;;;0.10;0.10;;;;;;;3.03;100.00;98882.72;4916007;28;20485;-72
2024/01/05 07:07:48;;;;;;;0.00;0.00;;;;;;;2.91;100.00;98872.88;4945440;28;20050;-72
2024/01/05 07:10:13;;;;;;;0.00;0.00;;;;;;;2.97;100.00;98885.34;4953407;28;20523;-73
2024/01/05 07:12:39;;;;;;;0.10;0.10;;;;;;;2.96;100.00;98899.94;4948930;28;20500;-73
2024/01/05 07:15:05;;;;;;;0.00;0.00;;;;;;;2.94;100.00;98902.06;4925119;28;20034;-72
2024/01/05 07:17:31;;;;;;;0.10;0.10;;;;;;;2.81;100.00;98897.06;4949063;28;20102;-70
2024/01/05 07:19:56;;;;;;;0.10;0.10;;;;;;;2.68;100.00;98898.25;4939931;28;20082;-72
2024/01/05 07:22:22;;;;;;;0.10;0.10;;;;;;;2.58;100.00;98914.31;4912981;28;20027;-71
2024/01/05 07:24:48;;;;;;;0.10;0.10;;;;;;;2.54;100.00;98919.41;4959755;28;20043;-73
2024/01/05 07:27:16;;;;;;;0.10;0.10;;;;;;;2.51;100.00;98929.88;4950461;28;20096;-72
2024/01/05 07:29:42;;;;;;;0.10;0.10;;;;;;;2.56;100.00;98928.06;4930757;28;20051;-71
2024/01/05 07:32:07;;;;;;;0.10;0.10;;;;;;;2.50;100.00;98922.84;4950382;28;20496;-71
2024/01/05 07:34:33;;;;;;;0.10;0.10;;;;;;;2.53;100.00;98933.97;4935642;28;20406;-72
2024/01/05 07:36:58;;;;;;;0.10;0.10;;;;;;;2.54;100.00;98940.16;4931985;28;20031;-70
2024/01/05 07:39:24;;;;;;;0.10;0.10;;;;;;;2.50;100.00;98949.81;4925970;28;20045;-71
2024/01/05 07:41:50;;;;;;;0.10;0.10;;;;;;;2.43;100.00;98953.53;4934002;28;20342;-70
2024/01/05 07:44:15;;;;;;;0.10;0.10;;;;;;;2.37;100.00;98951.81;4940162;28;20113;-71
2024/01/05 07:46:42;;;;;;;0.10;0.10;;;;;;;2.36;100.00;98950.19;4948416;28;20050;-71
2024/01/05 07:49:08;;;;;;;0.00;0.00;;;;;;;2.35;100.00;98953.13;4944429;28;20124;-71
2024/01/05 07:51:33;;;;;;;0.00;0.00;;;;;;;2.37;100.00;98951.03;4948775;28;20029;-72
2024/01/05 07:53:58;;;;;;;0.10;0.10;;;;;;;2.35;100.00;98956.66;4927243;28;20032;-71
2024/01/05 07:56:24;;;;;;;0.10;0.10;;;;;;;2.25;100.00;98959.22;4936092;29;20057;-71
2024/01/05 07:58:49;;;;;;;0.10;0.10;;;;;;;2.26;100.00;98967.06;4949268;28;20124;-71
2024/01/05 08:01:19;;;;;;;0.10;0.10;;;;;;;2.21;100.00;98961.56;4942332;28;20015;-73
2024/01/05 08:03:45;;;;;;;0.00;0.00;;;;;;;2.28;100.00;98969.50;4947707;28;20029;-72
2024/01/05 08:06:18;;;;;;;0.10;0.10;;;;;;;2.34;100.00;98979.31;4927367;28;20066;-72
2024/01/05 08:08:45;;;;;;;0.00;0.00;;;;;;;2.25;100.00;98960.03;4956697;28;20062;-72
2024/01/05 08:11:11;;;;;;;0.00;0.00;;;;;;;2.41;100.00;98981.81;4948919;28;20035;-71
2024/01/05 08:13:37;;;;;;;0.10;0.10;;;;;;;2.46;100.00;98983.78;4929282;29;20035;-72
2024/01/05 08:16:06;;;;;;;0.00;0.00;;;;;;;2.56;100.00;98986.63;4943860;28;20045;-72
2024/01/05 08:18:31;;;;;;;0.10;0.10;;;;;;;2.58;100.00;98974.50;4956309;28;20427;-71
2024/01/05 08:20:57;;;;;;;0.10;0.10;;;;;;;2.60;100.00;98993.97;4967711;28;20114;-71
2024/01/05 08:23:22;;;;;;;0.10;0.10;;;;;;;2.55;100.00;98988.50;4905419;28;20023;-71
2024/01/05 08:25:48;;;;;;;0.10;0.10;;;;;;;2.54;100.00;98994.97;4942037;28;20125;-71
2024/01/05 08:28:13;;;;;;;0.00;0.00;;;;;;;2.57;100.00;98994.47;4915108;28;21202;-69
2024/01/05 08:30:39;;;;;;;0.00;0.00;;;;;;;2.61;100.00;99003.72;4966517;28;20392;-70
2024/01/05 08:33:05;;;;;;;0.00;0.00;;;;;;;2.65;100.00;99009.41;4923318;28;20433;-72
2024/01/05 08:35:31;;;;;;;0.05;0.05;;;;;;;2.67;100.00;99004.59;4934147;28;20051;-72
2024/01/05 08:37:58;;;;;;;0.10;0.10;;;;;;;2.68;100.00;99010.81;4963069;28;20058;-72
2024/01/05 08:40:26;;;;;;;0.10;0.10;;;;;;;2.76;100.00;99013.91;4952489;28;20051;-72
2024/01/05 08:42:52;;;;;;;0.10;0.10;;;;;;;2.81;100.00;99015.84;4948105;28;20031;-74
2024/01/05 08:45:19;;;;;;;0.10;0.10;;;;;;;2.84;100.00;99020.75;4953200;28;20031;-71
2024/01/05 08:47:45;;;;;;;0.00;0.00;;;;;;;2.90;100.00;99025.16;4944597;28;20046;-71
2024/01/05 08:50:11;;;;;;;0.10;0.10;;;;;;;2.95;100.00;99027.94;4955639;28;20031;-72
2024/01/05 08:52:36;;;;;;;0.10;0.10;;;;;;;3.00;100.00;99029.88;4912369;28;20604;-72
2024/01/05 08:55:03;;;;;;;0.10;0.10;;;;;;;3.07;100.00;99024.28;4925439;28;20031;-71
2024/01/05 08:57:28;;;;;;;0.10;0.10;;;;;;;3.10;100.00;99029.19;4934708;28;20284;-71
2024/01/05 08:59:54;;;;;;;0.10;0.10;;;;;;;3.19;100.00;99033.09;4929514;28;20523;-72
2024/01/05 09:02:20;;;;;;;0.10;0.10;;;;;;;3.31;100.00;99043.75;4918900;28;20039;-72
2024/01/05 09:04:45;;;;;;;0.10;0.10;;;;;;;3.40;100.00;99041.44;4926424;28;20023;-72
2024/01/05 09:07:13;;;;;;;0.10;0.10;;;;;;;3.48;100.00;99049.91;4914689;28;20039;-75
2024/01/05 09:09:38;;;;;;;0.00;0.00;;;;;;;3.58;100.00;99046.50;4958616;28;20032;-72
2024/01/05 09:12:04;;;;;;;0.00;0.00;;;;;;;3.62;100.00;99053.03;4925333;28;20813;-73
2024/01/05 09:14:29;;;;;;;0.10;0.10;;;;;;;3.69;100.00;99052.81;4936487;28;20391;-72
2024/01/05 09:16:55;;;;;;;0.10;0.10;;;;;;;3.68;100.00;99040.41;4928421;28;20102;-71
2024/01/05 09:19:20;;;;;;;0.00;0.00;;;;;;;3.87;100.00;99056.25;4939696;28;20026;-72
2024/01/05 09:21:46;;;;;;;0.10;0.10;;;;;;;3.95;100.00;99056.59;4938454;28;20046;-73
2024/01/05 09:24:11;;;;;;;0.00;0.00;;;;;;;4.01;100.00;99055.56;4957949;28;20031;-73
2024/01/05 09:26:37;;;;;;;0.10;0.10;;;;;;;4.03;100.00;99052.66;4945613;28;20114;-73
2024/01/05 09:29:04;;;;;;;0.00;0.00;;;;;;;4.16;100.00;99073.03;4936506;28;20426;-72
2024/01/05 09:31:31;;;;;;;0.10;0.10;;;;;;;4.22;100.00;99072.03;4924019;28;20061;-73
2024/01/05 09:33:56;;;;;;;0.00;0.00;;;;;;;4.34;100.00;99071.84;4953899;28;20182;-73
2024/01/05 09:36:25;;;;;;;0.00;0.00;;;;;;;4.48;100.00;99074.91;4929840;28;20118;-78
2024/01/05 09:38:50;;;;;;;0.10;0.10;;;;;;;4.52;100.00;99070.63;4951681;28;20473;-77
2024/01/05 09:41:16;;;;;;;0.00;0.00;;;;;;;4.76;100.00;99090.03;4948324;28;20027;-76
2024/01/05 09:43:47;;;;;;;0.10;0.10;;;;;;;4.90;100.00;99093.09;4970547;28;20481;-74
2024/01/05 09:46:13;;;;;;;0.10;0.10;;;;;;;5.02;100.00;99096.44;4940731;28;20023;-73
2024/01/05 09:48:38;;;;;;;0.00;0.00;;;;;;;5.25;100.00;99107.94;4935271;28;20528;-74
2024/01/05 09:51:06;;;;;;;0.00;0.00;;;;;;;5.40;100.00;99099.88;4931212;28;20039;-73
2024/01/05 09:53:32;;;;;;;0.00;0.00;;;;;;;5.71;100.00;99113.56;4971770;28;20504;-76
2024/01/05 09:55:58;;;;;;;0.00;0.00;;;;;;;5.95;100.00;99102.22;4941805;28;20046;-77
2024/01/05 09:58:25;;;;;;;0.10;0.10;;;;;;;6.22;100.00;99090.34;4950592;28;20416;-77
2024/01/05 10:00:54;;;;;;;0.00;0.00;;;;;;;6.85;100.00;99124.59;4966240;28;20026;-77
2024/01/05 10:03:22;;;;;;;0.00;0.00;;;;;;;7.12;100.00;99125.09;4964072;28;20076;-77
2024/01/05 10:05:54;;;;;;;0.00;0.00;;;;;;;7.08;100.00;99124.03;4958689;28;21243;-77
2024/01/05 10:08:22;;;;;;;0.00;0.00;;;;;;;6.77;100.00;99098.78;4942957;28;20118;-78
2024/01/05 10:10:49;;;;;;;0.00;0.00;;;;;;;6.94;100.00;99129.22;4938357;28;20031;-76
2024/01/05 10:13:16;;;;;;;0.00;0.00;;;;;;;7.04;100.00;99122.97;4963291;28;20547;-76
2024/01/05 10:15:59;;;;;;;0.00;0.00;;;;;;;7.80;100.00;99145.56;4961478;28;20019;-77
2024/01/05 10:18:25;;;;;;;0.08;0.08;;;;;;;8.71;100.00;99147.22;4957666;28;20081;-77
2024/01/05 10:20:57;;;;;;;0.00;0.00;;;;;;;9.54;100.00;99137.16;4943068;28;20504;-77
2024/01/05 10:23:24;;;;;;;0.00;0.00;;;;;;;10.46;100.00;99143.34;4947763;28;20114;-77
2024/01/05 10:25:51;;;;;;;0.00;0.00;;;;;;;11.69;100.00;99132.13;4940623;28;20134;-75
2024/01/05 10:28:20;;;;;;;0.00;0.00;;;;;;;13.22;99.17;99158.28;4965758;28;20166;-75
2024/01/05 10:30:55;;;;;;;;;;;;;;;;;;;;;
2024/01/05 10:33:21;;;;;;;0.00;0.00;;;;;;;14.45;86.14;99132.78;4954036;28;20057;-75
2024/01/05 10:35:51;;;;;;;0.00;0.00;;;;;;;14.68;84.17;99162.13;4931593;28;20473;-76
2024/01/05 10:38:17;;;;;;;0.00;0.00;;;;;;;14.98;82.76;99161.13;4971890;28;20038;-75
2024/01/05 10:40:45;;;;;;;0.00;0.00;;;;;;;14.79;81.03;99136.72;4929557;28;20113;-74
2024/01/05 10:43:22;;;;;;;0.00;0.00;;;;;;;14.78;81.35;99168.09;4971765;28;20055;-75
2024/01/05 10:45:48;;;;;;;0.00;0.00;;;;;;;14.55;80.66;99139.91;4964950;28;20085;-76
2024/01/05 10:48:16;;;;;;;0.00;0.00;;;;;;;14.51;81.46;99163.69;4959771;28;20038;-78
2024/01/05 10:50:44;;;;;;;0.00;0.00;;;;;;;14.08;81.02;99168.00;4939540;28;20149;-77
2024/01/05 10:53:09;;;;;;;0.00;0.00;;;;;;;14.46;82.67;99172.91;4978085;28;20041;-78
2024/01/05 10:55:37;;;;;;;0.10;0.10;;;;;;;14.58;80.01;99174.22;4946743;28;21036;-75
2024/01/05 10:58:04;;;;;;;0.00;0.00;;;;;;;14.56;75.29;99162.72;4945151;28;20188;-77
2024/01/05 11:00:30;;;;;;;0.00;0.00;;;;;;;14.88;78.85;99161.47;4965318;28;20027;-77
2024/01/05 11:03:12;;;;;;;0.00;0.00;;;;;;;16.11;75.82;99172.88;4934357;28;20041;-77
2024/01/05 11:05:42;;;;;;;0.10;0.10;;;;;;;17.17;70.99;99181.16;4966345;28;20382;-76
2024/01/05 11:08:23;;;;;;;0.00;0.00;;;;;;;17.74;69.64;99188.66;4975314;28;20054;-75
2024/01/05 11:11:18;;;;;;;0.10;0.10;;;;;;;18.18;65.31;99185.34;4964095;28;20023;-75
2024/01/05 11:14:16;;;;;;;0.00;0.00;;;;;;;18.71;64.34;99167.94;4952202;28;20082;-76
2024/01/05 11:17:00;;;;;;;0.00;0.00;;;;;;;19.10;63.51;99176.53;4948009;28;20695;-75
2024/01/05 11:19:55;;;;;;;0.00;0.00;;;;;;;17.54;68.68;99175.72;4974463;28;20098;-74
2024/01/05 11:22:31;;;;;;;0.00;0.00;;;;;;;17.02;72.58;99164.06;4954549;28;20126;-76
2024/01/05 11:25:00;;;;;;;0.00;0.00;;;;;;;15.79;76.28;99166.09;4954595;28;20457;-75
2024/01/05 11:27:35;;;;;;;0.00;0.00;;;;;;;17.24;78.38;99179.47;4938485;28;20045;-75
2024/01/05 11:30:02;;;;;;;0.00;0.00;;;;;;;20.26;64.99;99160.84;4939235;28;20101;-75
2024/01/05 11:32:45;;;;;;;0.00;0.00;;;;;;;22.80;55.71;99174.88;4968462;28;20086;-74
2024/01/05 11:35:17;;;;;;;0.10;0.10;;;;;;;24.94;49.78;99183.03;4926298;29;20039;-75
2024/01/05 11:37:47;;;;;;;0.00;0.00;;;;;;;26.74;45.48;99180.34;4946963;28;20015;-74